createdAt,value
2019-01-13T00:00:55.038Z,1002.11
2019-01-13T00:01:53.856Z,1002.17
2019-01-13T00:02:52.402Z,1002.17
2019-01-13T00:03:50.905Z,1002.17
2019-01-13T00:04:49.501Z,1002.1
2019-01-13T00:05:48.043Z,1002.12
2019-01-13T00:06:46.583Z,1002.08
2019-01-13T00:07:45.090Z,1002.18
2019-01-13T00:08:43.628Z,1002.06
2019-01-13T00:09:42.190Z,1002.07
2019-01-13T00:10:40.723Z,1002.05
2019-01-13T00:11:39.261Z,1002
2019-01-13T00:12:37.865Z,1001.96
2019-01-13T00:13:36.534Z,1002.03
2019-01-13T00:14:35.097Z,1001.93
2019-01-13T00:15:33.754Z,1001.98
2019-01-13T00:16:32.529Z,1002.03
2019-01-13T00:17:31.143Z,1001.99
2019-01-13T00:18:29.682Z,1002.01
2019-01-13T00:19:28.300Z,1002.03
2019-01-13T00:20:26.858Z,1001.97
2019-01-13T00:21:25.424Z,1002.02
2019-01-13T00:22:24.360Z,1002.06
2019-01-13T00:23:22.885Z,1002
2019-01-13T00:24:21.745Z,1002.05
2019-01-13T00:25:20.276Z,1002.02
2019-01-13T00:26:18.806Z,1002.08
2019-01-13T00:27:17.360Z,1002.05
2019-01-13T00:28:16.095Z,1002.06
2019-01-13T00:29:14.631Z,1002
2019-01-13T00:30:19.011Z,1001.98
2019-01-13T00:31:11.961Z,1001.9
2019-01-13T00:32:10.715Z,1001.92
2019-01-13T00:33:09.413Z,1001.97
2019-01-13T00:34:07.949Z,1001.97
2019-01-13T00:35:06.662Z,1001.93
2019-01-13T00:36:05.154Z,1001.94
2019-01-13T00:37:03.714Z,1001.95
2019-01-13T00:38:02.434Z,1001.99
2019-01-13T00:39:00.962Z,1001.96
2019-01-13T00:39:59.601Z,1001.93
2019-01-13T00:40:58.421Z,1001.91
2019-01-13T00:41:56.935Z,1001.91
2019-01-13T00:42:55.589Z,1001.94
2019-01-13T00:43:54.138Z,1002.02
2019-01-13T00:44:52.680Z,1001.95
2019-01-13T00:45:51.218Z,1001.89
2019-01-13T00:46:49.776Z,1001.96
2019-01-13T00:47:48.467Z,1001.98
2019-01-13T00:48:47.028Z,1001.95
2019-01-13T00:49:45.713Z,1002.01
2019-01-13T00:50:44.450Z,1002.02
2019-01-13T00:51:43.010Z,1002.01
2019-01-13T00:52:41.721Z,1002.03
2019-01-13T00:53:40.309Z,1001.99
2019-01-13T00:54:38.841Z,1002.05
2019-01-13T00:55:37.356Z,1002.04
2019-01-13T00:56:35.909Z,1002.09
2019-01-13T00:57:34.764Z,1002.05
2019-01-13T00:58:33.284Z,1002.07
2019-01-13T00:59:31.843Z,1002.15
2019-01-13T01:00:30.477Z,1002.14
2019-01-13T01:01:29.027Z,1002.06
2019-01-13T01:02:27.583Z,1002.13
2019-01-13T01:03:26.311Z,1002.12
2019-01-13T01:04:24.867Z,1002.22
2019-01-13T01:05:23.527Z,1002.17
2019-01-13T01:06:22.027Z,1002.2
2019-01-13T01:07:20.599Z,1002.23
2019-01-13T01:08:19.343Z,1002.24
2019-01-13T01:09:18.013Z,1002.28
2019-01-13T01:11:53.129Z,1002.32
2019-01-13T01:12:52.074Z,1002.34
2019-01-13T01:13:50.649Z,1002.31
2019-01-13T01:14:49.197Z,1002.34
2019-01-13T01:15:47.739Z,1002.37
2019-01-13T01:16:46.283Z,1002.39
2019-01-13T01:17:44.824Z,1002.37
2019-01-13T01:18:43.349Z,1002.35
2019-01-13T01:19:41.891Z,1002.36
2019-01-13T01:20:40.630Z,1002.34
2019-01-13T01:21:39.136Z,1002.44
2019-01-13T01:22:37.685Z,1002.45
2019-01-13T01:23:36.355Z,1002.46
2019-01-13T01:24:34.887Z,1002.44
2019-01-13T01:25:33.412Z,1002.44
2019-01-13T01:26:32.054Z,1002.4
2019-01-13T01:27:30.611Z,1002.42
2019-01-13T01:28:29.154Z,1002.42
2019-01-13T01:29:27.806Z,1002.45
2019-01-13T01:30:33.254Z,1002.43
2019-01-13T01:31:24.977Z,1002.41
2019-01-13T01:32:23.537Z,1002.41
2019-01-13T01:33:25.962Z,1002.39
2019-01-13T01:34:20.593Z,1002.43
2019-01-13T01:35:19.165Z,1002.37
2019-01-13T01:36:17.835Z,1002.33
2019-01-13T01:37:16.451Z,1002.42
2019-01-13T01:38:14.995Z,1002.37
2019-01-13T01:39:13.585Z,1002.37
2019-01-13T01:40:12.449Z,1002.37
2019-01-13T01:41:10.964Z,1002.35
2019-01-13T01:42:09.619Z,1002.39
2019-01-13T01:43:08.161Z,1002.4
2019-01-13T01:44:06.718Z,1002.38
2019-01-13T01:45:05.251Z,1002.37
2019-01-13T01:46:03.785Z,1002.42
2019-01-13T01:47:02.378Z,1002.4
2019-01-13T01:48:00.914Z,1002.47
2019-01-13T01:48:59.449Z,1002.46
2019-01-13T01:49:58.273Z,1002.49
2019-01-13T01:50:56.951Z,1002.48
2019-01-13T01:51:55.662Z,1002.45
2019-01-13T01:52:54.287Z,1002.47
2019-01-13T01:53:52.851Z,1002.51
2019-01-13T01:56:33.041Z,1002.49
2019-01-13T01:57:31.789Z,1002.51
2019-01-13T01:58:30.467Z,1002.51
2019-01-13T01:59:29.010Z,1002.48
2019-01-13T02:00:27.757Z,1002.49
2019-01-13T02:01:26.321Z,1002.47
2019-01-13T02:02:24.874Z,1002.44
2019-01-13T02:05:47.010Z,1002.46
2019-01-13T02:09:08.528Z,1002.41
2019-01-13T02:10:07.087Z,1002.44
2019-01-13T02:11:05.648Z,1002.4
2019-01-13T02:12:04.199Z,1002.35
2019-01-13T02:13:02.725Z,1002.39
2019-01-13T02:14:01.286Z,1002.43
2019-01-13T02:18:07.068Z,1002.33
2019-01-13T02:19:05.566Z,1002.32
2019-01-13T02:20:04.114Z,1002.32
2019-01-13T02:21:02.627Z,1002.24
2019-01-13T02:22:01.176Z,1002.24
2019-01-13T02:22:59.722Z,1002.17
2019-01-13T02:23:58.365Z,1002.22
2019-01-13T02:24:56.902Z,1002.22
2019-01-13T02:25:55.644Z,1002.16
2019-01-13T02:26:54.450Z,1002.17
2019-01-13T02:27:53.000Z,1002.16
2019-01-13T02:28:51.652Z,1002.13
2019-01-13T02:29:50.233Z,1002.15
2019-01-13T02:30:49.473Z,1002.15
2019-01-13T02:31:47.311Z,1002.09
2019-01-13T02:32:45.839Z,1002.14
2019-01-13T02:33:44.379Z,1002.17
2019-01-13T02:34:42.922Z,1002.14
2019-01-13T02:35:41.477Z,1002.09
2019-01-13T02:36:40.318Z,1002.07
2019-01-13T02:37:38.878Z,1002.09
2019-01-13T02:38:37.406Z,1002.12
2019-01-13T02:39:36.299Z,1002.06
2019-01-13T02:40:34.861Z,1002.06
2019-01-13T02:41:33.389Z,1002.08
2019-01-13T02:42:31.940Z,1002.13
2019-01-13T02:43:30.495Z,1002.13
2019-01-13T02:44:29.030Z,1002.12
2019-01-13T02:45:27.602Z,1002.18
2019-01-13T02:46:26.156Z,1002.07
2019-01-13T02:47:24.710Z,1002.08
2019-01-13T02:48:23.234Z,1002
2019-01-13T02:49:22.107Z,1001.98
2019-01-13T02:50:20.741Z,1001.95
2019-01-13T02:51:19.425Z,1001.94
2019-01-13T02:52:18.173Z,1001.91
2019-01-13T02:53:16.724Z,1001.95
2019-01-13T02:54:15.282Z,1001.96
2019-01-13T02:55:14.191Z,1001.96
2019-01-13T02:56:12.732Z,1001.91
2019-01-13T02:57:11.260Z,1001.94
2019-01-13T02:58:10.138Z,1001.97
2019-01-13T02:59:08.681Z,1001.94
2019-01-13T03:00:07.231Z,1002
2019-01-13T03:01:05.733Z,1002.02
2019-01-13T03:02:04.299Z,1002.01
2019-01-13T03:03:02.831Z,1002.03
2019-01-13T03:04:01.383Z,1002.03
2019-01-13T03:04:59.940Z,1001.96
2019-01-13T03:05:58.546Z,1001.97
2019-01-13T03:06:57.083Z,1001.88
2019-01-13T03:07:55.786Z,1001.92
2019-01-13T03:08:54.478Z,1001.9
2019-01-13T03:09:53.193Z,1001.94
2019-01-13T03:10:51.838Z,1001.92
2019-01-13T03:11:50.373Z,1001.99
2019-01-13T03:12:48.920Z,1001.94
2019-01-13T03:13:47.451Z,1001.9
2019-01-13T03:14:46.036Z,1001.87
2019-01-13T03:15:44.592Z,1001.91
2019-01-13T03:16:43.133Z,1001.94
2019-01-13T03:17:41.945Z,1001.94
2019-01-13T03:18:40.582Z,1001.99
2019-01-13T03:19:39.148Z,1001.96
2019-01-13T03:20:37.984Z,1001.94
2019-01-13T03:21:36.609Z,1002.01
2019-01-13T03:22:35.145Z,1002
2019-01-13T03:23:33.683Z,1001.91
2019-01-13T03:24:32.216Z,1001.93
2019-01-13T03:25:30.745Z,1001.97
2019-01-13T03:26:29.273Z,1001.95
2019-01-13T03:27:27.983Z,1001.91
2019-01-13T03:28:26.552Z,1001.9
2019-01-13T03:29:25.096Z,1001.95
2019-01-13T03:30:23.677Z,1001.92
2019-01-13T03:31:22.515Z,1001.92
2019-01-13T03:32:21.294Z,1002.01
2019-01-13T03:33:19.852Z,1001.95
2019-01-13T03:34:18.350Z,1001.95
2019-01-13T03:35:16.893Z,1001.9
2019-01-13T03:36:15.457Z,1001.88
2019-01-13T03:37:14.295Z,1001.86
2019-01-13T03:38:12.821Z,1001.85
2019-01-13T03:39:11.390Z,1001.8
2019-01-13T03:40:10.116Z,1001.81
2019-01-13T03:41:08.669Z,1001.8
2019-01-13T03:42:07.193Z,1001.8
2019-01-13T03:43:05.835Z,1001.78
2019-01-13T03:44:04.389Z,1001.72
2019-01-13T03:45:02.935Z,1001.73
2019-01-13T03:46:01.478Z,1001.71
2019-01-13T03:47:00.025Z,1001.72
2019-01-13T03:47:58.571Z,1001.72
2019-01-13T03:48:57.117Z,1001.74
2019-01-13T03:49:55.662Z,1001.64
2019-01-13T03:50:54.349Z,1001.67
2019-01-13T03:51:52.922Z,1001.68
2019-01-13T03:52:52.986Z,1001.64
2019-01-13T03:53:50.155Z,1001.55
2019-01-13T03:54:48.820Z,1001.54
2019-01-13T03:55:47.621Z,1001.55
2019-01-13T03:56:46.133Z,1001.5
2019-01-13T03:57:44.677Z,1001.45
2019-01-13T03:58:43.294Z,1001.44
2019-01-13T03:59:41.854Z,1001.39
2019-01-13T04:00:40.649Z,1001.35
2019-01-13T04:01:39.186Z,1001.39
2019-01-13T04:02:38.152Z,1001.36
2019-01-13T04:03:36.695Z,1001.38
2019-01-13T04:04:35.266Z,1001.38
2019-01-13T04:05:33.894Z,1001.41
2019-01-13T04:06:32.529Z,1001.42
2019-01-13T04:07:31.070Z,1001.41
2019-01-13T04:08:29.760Z,1001.39
2019-01-13T04:09:28.356Z,1001.46
2019-01-13T04:10:26.903Z,1001.4
2019-01-13T04:11:25.524Z,1001.42
2019-01-13T04:12:24.296Z,1001.36
2019-01-13T04:13:22.901Z,1001.35
2019-01-13T04:14:21.482Z,1001.26
2019-01-13T04:15:20.024Z,1001.22
2019-01-13T04:16:18.571Z,1001.15
2019-01-13T04:17:17.273Z,1001.18
2019-01-13T04:18:15.996Z,1001.14
2019-01-13T04:19:14.546Z,1001.22
2019-01-13T04:20:13.088Z,1001.17
2019-01-13T04:21:11.634Z,1001.29
2019-01-13T04:22:10.337Z,1001.25
2019-01-13T04:23:08.887Z,1001.32
2019-01-13T04:24:07.610Z,1001.27
2019-01-13T04:25:06.217Z,1001.28
2019-01-13T04:26:04.770Z,1001.24
2019-01-13T04:27:03.297Z,1001.24
2019-01-13T04:28:02.170Z,1001.23
2019-01-13T04:29:00.716Z,1001.24
2019-01-13T04:29:59.258Z,1001.24
2019-01-13T04:30:58.140Z,1001.31
2019-01-13T04:31:56.701Z,1001.31
2019-01-13T04:32:55.268Z,1001.33
2019-01-13T04:33:53.818Z,1001.23
2019-01-13T04:34:52.463Z,1001.28
2019-01-13T04:35:51.002Z,1001.17
2019-01-13T04:36:49.635Z,1001.27
2019-01-13T04:37:48.308Z,1001.21
2019-01-13T04:38:46.858Z,1001.26
2019-01-13T04:39:45.403Z,1001.24
2019-01-13T04:40:44.293Z,1001.29
2019-01-13T04:41:42.828Z,1001.21
2019-01-13T04:42:41.383Z,1001.19
2019-01-13T04:43:39.942Z,1001.18
2019-01-13T04:44:38.482Z,1001.22
2019-01-13T04:45:37.197Z,1001.21
2019-01-13T04:46:36.043Z,1001.23
2019-01-13T04:47:34.671Z,1001.17
2019-01-13T04:48:33.188Z,1001.26
2019-01-13T04:49:31.941Z,1001.2
2019-01-13T04:50:30.512Z,1001.2
2019-01-13T04:51:29.034Z,1001.25
2019-01-13T04:52:27.991Z,1001.27
2019-01-13T04:53:26.732Z,1001.29
2019-01-13T04:54:25.379Z,1001.28
2019-01-13T04:55:24.049Z,1001.25
2019-01-13T04:56:22.585Z,1001.26
2019-01-13T04:57:21.136Z,1001.26
2019-01-13T04:58:19.719Z,1001.27
2019-01-13T04:59:18.268Z,1001.29
2019-01-13T05:00:16.807Z,1001.28
2019-01-13T05:01:15.346Z,1001.31
2019-01-13T05:02:14.150Z,1001.27
2019-01-13T05:03:12.701Z,1001.35
2019-01-13T05:04:11.236Z,1001.35
2019-01-13T05:05:09.814Z,1001.33
2019-01-13T05:06:08.558Z,1001.38
2019-01-13T05:07:07.108Z,1001.32
2019-01-13T05:08:05.711Z,1001.32
2019-01-13T05:09:04.297Z,1001.24
2019-01-13T05:10:03.052Z,1001.22
2019-01-13T05:11:01.690Z,1001.22
2019-01-13T05:12:00.357Z,1001.23
2019-01-13T05:12:58.868Z,1001.24
2019-01-13T05:13:57.404Z,1001.19
2019-01-13T05:14:56.316Z,1001.18
2019-01-13T05:15:54.878Z,1001.15
2019-01-13T05:16:53.422Z,1001.12
2019-01-13T05:17:51.986Z,1001.15
2019-01-13T05:18:50.512Z,1001.14
2019-01-13T05:19:49.060Z,1001.16
2019-01-13T05:20:47.633Z,1001.12
2019-01-13T05:21:46.261Z,1001.12
2019-01-13T05:22:44.803Z,1001.1
2019-01-13T05:23:43.328Z,1001.06
2019-01-13T05:24:42.081Z,1001.03
2019-01-13T05:25:40.752Z,1000.98
2019-01-13T05:26:39.289Z,1001.01
2019-01-13T05:27:38.011Z,1000.91
2019-01-13T05:28:36.550Z,1001
2019-01-13T05:29:35.097Z,1000.93
2019-01-13T05:30:33.649Z,1000.91
2019-01-13T05:31:32.217Z,1000.87
2019-01-13T05:32:30.786Z,1000.82
2019-01-13T05:33:29.314Z,1000.84
2019-01-13T05:34:27.849Z,1000.81
2019-01-13T05:35:26.472Z,1000.77
2019-01-13T05:36:25.086Z,1000.79
2019-01-13T05:37:23.941Z,1000.8
2019-01-13T05:38:22.561Z,1000.71
2019-01-13T05:39:21.111Z,1000.7
2019-01-13T05:40:19.749Z,1000.64
2019-01-13T05:41:18.353Z,1000.58
2019-01-13T05:42:16.871Z,1000.62
2019-01-13T05:43:15.426Z,1000.67
2019-01-13T05:44:13.960Z,1000.61
2019-01-13T05:45:12.564Z,1000.57
2019-01-13T05:46:11.102Z,1000.62
2019-01-13T05:47:09.630Z,1000.55
2019-01-13T05:48:08.446Z,1000.55
2019-01-13T05:49:06.977Z,1000.47
2019-01-13T05:50:05.532Z,1000.5
2019-01-13T05:51:04.331Z,1000.43
2019-01-13T05:52:02.876Z,1000.39
2019-01-13T05:53:01.427Z,1000.33
2019-01-13T05:54:00.090Z,1000.44
2019-01-13T05:54:58.752Z,1000.33
2019-01-13T05:55:57.312Z,1000.34
2019-01-13T05:56:56.207Z,1000.3
2019-01-13T05:57:54.840Z,1000.4
2019-01-13T05:58:53.514Z,1000.4
2019-01-13T05:59:52.083Z,1000.43
2019-01-13T06:00:50.643Z,1000.43
2019-01-13T06:01:49.508Z,1000.44
2019-01-13T06:02:47.696Z,1000.42
2019-01-13T06:03:46.245Z,1000.44
2019-01-13T06:04:45.104Z,1000.45
2019-01-13T06:05:43.740Z,1000.39
2019-01-13T06:06:42.567Z,1000.3
2019-01-13T06:07:41.127Z,1000.31
2019-01-13T06:08:39.741Z,1000.26
2019-01-13T06:09:38.280Z,1000.23
2019-01-13T06:10:36.830Z,1000.18
2019-01-13T06:11:35.407Z,1000.16
2019-01-13T06:12:33.982Z,1000.12
2019-01-13T06:13:32.693Z,1000.13
2019-01-13T06:14:31.239Z,1000.14
2019-01-13T06:15:29.864Z,1000.19
2019-01-13T06:16:28.418Z,1000.21
2019-01-13T06:17:26.985Z,1000.26
2019-01-13T06:18:25.561Z,1000.23
2019-01-13T06:19:24.357Z,1000.28
2019-01-13T06:20:23.019Z,1000.21
2019-01-13T06:21:21.564Z,1000.24
2019-01-13T06:22:20.120Z,1000.22
2019-01-13T06:23:18.658Z,1000.19
2019-01-13T06:24:17.198Z,1000.11
2019-01-13T06:25:15.798Z,1000.2
2019-01-13T06:26:14.319Z,1000.15
2019-01-13T06:27:12.880Z,1000.12
2019-01-13T06:28:11.430Z,1000.08
2019-01-13T06:29:10.137Z,1000.14
2019-01-13T06:30:09.015Z,1000.09
2019-01-13T06:31:07.350Z,1000.05
2019-01-13T06:32:06.121Z,1000.03
2019-01-13T06:33:04.696Z,1000.04
2019-01-13T06:34:03.227Z,1000.08
2019-01-13T06:35:01.885Z,1000.07
2019-01-13T06:36:00.641Z,1000.04
2019-01-13T06:36:59.173Z,1000.06
2019-01-13T06:37:57.874Z,1000.04
2019-01-13T06:38:56.522Z,1000.11
2019-01-13T06:39:55.059Z,999.89
2019-01-13T06:40:53.575Z,999.93
2019-01-13T06:41:52.259Z,999.88
2019-01-13T06:42:50.811Z,999.85
2019-01-13T06:43:49.360Z,999.81
2019-01-13T06:44:47.931Z,999.89
2019-01-13T06:45:46.595Z,999.88
2019-01-13T06:46:45.131Z,999.85
2019-01-13T06:47:43.661Z,999.84
2019-01-13T06:48:42.537Z,999.73
2019-01-13T06:49:41.096Z,999.76
2019-01-13T06:50:39.714Z,999.75
2019-01-13T06:51:38.406Z,999.74
2019-01-13T06:52:36.978Z,999.72
2019-01-13T06:53:35.491Z,999.66
2019-01-13T06:54:34.048Z,999.62
2019-01-13T06:55:32.616Z,999.64
2019-01-13T06:56:31.144Z,999.62
2019-01-13T06:57:30.199Z,999.56
2019-01-13T06:58:28.785Z,999.57
2019-01-13T06:59:27.345Z,999.49
2019-01-13T07:00:26.063Z,999.54
2019-01-13T07:01:24.612Z,999.45
2019-01-13T07:02:23.158Z,999.56
2019-01-13T07:03:21.830Z,999.57
2019-01-13T07:04:20.498Z,999.58
2019-01-13T07:05:19.055Z,999.61
2019-01-13T07:06:17.716Z,999.61
2019-01-13T07:07:16.561Z,999.57
2019-01-13T07:08:15.133Z,999.55
2019-01-13T07:09:13.861Z,999.51
2019-01-13T07:10:12.466Z,999.52
2019-01-13T07:11:11.052Z,999.46
2019-01-13T07:12:09.668Z,999.43
2019-01-13T07:13:08.529Z,999.37
2019-01-13T07:14:07.068Z,999.37
2019-01-13T07:15:05.699Z,999.41
2019-01-13T07:16:04.343Z,999.47
2019-01-13T07:17:02.863Z,999.44
2019-01-13T07:18:01.411Z,999.46
2019-01-13T07:18:59.952Z,999.44
2019-01-13T07:19:58.649Z,999.41
2019-01-13T07:20:57.266Z,999.31
2019-01-13T07:21:55.811Z,999.33
2019-01-13T07:22:54.512Z,999.31
2019-01-13T07:23:53.045Z,999.37
2019-01-13T07:24:51.708Z,999.44
2019-01-13T07:25:50.367Z,999.44
2019-01-13T07:26:48.989Z,999.41
2019-01-13T07:27:47.829Z,999.43
2019-01-13T07:28:46.642Z,999.5
2019-01-13T07:29:45.190Z,999.53
2019-01-13T07:30:44.024Z,999.46
2019-01-13T07:31:42.554Z,999.4
2019-01-13T07:32:41.184Z,999.33
2019-01-13T07:33:39.735Z,999.23
2019-01-13T07:34:38.261Z,999.17
2019-01-13T07:35:36.839Z,999.17
2019-01-13T07:36:35.376Z,999.09
2019-01-13T07:37:34.232Z,999.09
2019-01-13T07:38:33.026Z,999.09
2019-01-13T07:39:31.579Z,999.15
2019-01-13T07:40:30.216Z,999.13
2019-01-13T07:41:28.732Z,999.14
2019-01-13T07:42:27.323Z,999.08
2019-01-13T07:43:26.334Z,999.05
2019-01-13T07:44:24.987Z,999.06
2019-01-13T07:45:23.749Z,999.09
2019-01-13T07:46:22.315Z,999
2019-01-13T07:47:20.841Z,999.02
2019-01-13T07:48:19.393Z,999.08
2019-01-13T07:49:17.968Z,999.1
2019-01-13T07:50:16.514Z,999.24
2019-01-13T07:51:15.039Z,999.3
2019-01-13T07:52:14.562Z,999.22
2019-01-13T07:53:13.145Z,999.19
2019-01-13T07:54:11.916Z,999.2
2019-01-13T07:55:10.634Z,999.15
2019-01-13T07:56:09.173Z,999.14
2019-01-13T07:57:07.924Z,999.1
2019-01-13T07:58:07.064Z,999.09
2019-01-13T07:59:05.737Z,999.01
2019-01-13T08:00:04.468Z,998.95
2019-01-13T08:01:03.004Z,998.97
2019-01-13T08:02:01.545Z,998.98
2019-01-13T08:03:00.102Z,999.01
2019-01-13T08:03:58.665Z,998.99
2019-01-13T08:04:57.960Z,998.97
2019-01-13T08:07:38.153Z,998.99
2019-01-13T08:08:36.700Z,998.93
2019-01-13T08:09:35.272Z,998.95
2019-01-13T08:10:34.098Z,998.96
2019-01-13T08:11:32.798Z,998.95
2019-01-13T08:12:31.445Z,998.95
2019-01-13T08:13:30.070Z,998.92
2019-01-13T08:14:28.915Z,998.87
2019-01-13T08:15:27.519Z,998.98
2019-01-13T08:16:26.159Z,998.91
2019-01-13T08:17:24.882Z,998.84
2019-01-13T08:18:23.400Z,998.89
2019-01-13T08:19:22.142Z,998.84
2019-01-13T08:20:20.794Z,998.82
2019-01-13T08:21:19.622Z,998.8
2019-01-13T08:22:18.245Z,998.91
2019-01-13T08:23:16.824Z,998.84
2019-01-13T08:24:15.372Z,998.83
2019-01-13T08:27:36.542Z,998.87
2019-01-13T08:28:35.095Z,998.86
2019-01-13T08:29:33.687Z,998.79
2019-01-13T08:30:32.257Z,998.82
2019-01-13T08:31:30.820Z,998.82
2019-01-13T08:32:29.401Z,998.82
2019-01-13T08:33:28.066Z,998.91
2019-01-13T08:36:12.640Z,998.97
2019-01-13T08:37:11.233Z,998.96
2019-01-13T08:38:09.770Z,998.9
2019-01-13T08:39:08.291Z,998.87
2019-01-13T08:40:06.836Z,998.89
2019-01-13T08:41:05.426Z,998.98
2019-01-13T08:42:04.188Z,998.87
2019-01-13T08:43:02.955Z,998.94
2019-01-13T08:44:01.625Z,998.92
2019-01-13T08:45:00.259Z,998.89
2019-01-13T08:45:58.799Z,998.87
2019-01-13T08:46:57.339Z,998.92
2019-01-13T08:47:55.951Z,998.92
2019-01-13T08:48:54.639Z,998.86
2019-01-13T08:49:53.246Z,998.87
2019-01-13T08:50:51.905Z,998.89
2019-01-13T08:51:50.677Z,998.88
2019-01-13T08:52:49.215Z,998.89
2019-01-13T09:05:07.531Z,999.04
2019-01-13T09:06:06.242Z,999.04
2019-01-13T09:07:04.807Z,999.1
2019-01-13T09:08:03.398Z,999.05
2019-01-13T09:09:01.969Z,999.03
2019-01-13T09:10:00.785Z,998.99
2019-01-13T09:11:00.323Z,998.93
2019-01-13T09:11:58.981Z,998.96
2019-01-13T09:12:57.756Z,998.88
2019-01-13T09:13:56.342Z,998.86
2019-01-13T09:14:54.896Z,998.91
2019-01-13T09:15:53.429Z,998.85
2019-01-13T09:16:52.002Z,998.9
2019-01-13T09:17:50.710Z,998.96
2019-01-13T09:18:49.241Z,998.99
2019-01-13T09:19:47.872Z,998.97
2019-01-13T09:20:46.842Z,998.98
2019-01-13T09:21:45.389Z,999
2019-01-13T09:22:43.972Z,998.97
2019-01-13T09:23:42.628Z,998.93
2019-01-13T09:24:41.153Z,999.02
2019-01-13T09:25:39.729Z,998.95
2019-01-13T09:26:38.883Z,998.98
2019-01-13T09:27:37.184Z,998.97
2019-01-13T09:31:16.102Z,999.14
2019-01-13T09:32:14.752Z,999.03
2019-01-13T09:33:13.330Z,999
2019-01-13T09:34:12.030Z,998.97
2019-01-13T09:35:10.856Z,998.95
2019-01-13T09:36:09.427Z,998.92
2019-01-13T09:37:08.034Z,998.85
2019-01-13T09:38:06.889Z,998.88
2019-01-13T09:39:06.501Z,998.81
2019-01-13T09:40:07.151Z,998.81
2019-01-13T09:41:07.366Z,998.83
2019-01-13T09:42:07.586Z,998.74
2019-01-13T09:43:08.213Z,998.75
2019-01-13T09:44:08.957Z,998.75
2019-01-13T09:45:10.018Z,998.71
2019-01-13T09:46:10.699Z,998.63
2019-01-13T09:47:11.005Z,998.59
2019-01-13T09:48:11.715Z,998.59
2019-01-13T09:49:12.318Z,998.6
2019-01-13T09:50:12.403Z,998.66
2019-01-13T09:51:11.069Z,998.69
2019-01-13T09:52:09.663Z,998.73
2019-01-13T09:53:08.282Z,998.59
2019-01-13T09:54:07.840Z,998.61
2019-01-13T09:55:08.246Z,998.63
2019-01-13T09:56:08.178Z,998.65
2019-01-13T09:57:07.903Z,998.58
2019-01-13T09:58:08.332Z,998.56
2019-01-13T09:59:08.574Z,998.59
2019-01-13T10:00:09.111Z,998.52
2019-01-13T10:01:09.198Z,998.51
2019-01-13T10:02:08.046Z,998.54
2019-01-13T10:03:06.608Z,998.49
2019-01-13T10:04:05.155Z,998.42
2019-01-13T10:05:03.719Z,998.38
2019-01-13T10:06:02.248Z,998.45
2019-01-13T10:07:00.973Z,998.43
2019-01-13T10:07:59.530Z,998.42
2019-01-13T10:08:58.242Z,998.38
2019-01-13T10:09:56.876Z,998.4
2019-01-13T10:10:55.729Z,998.36
2019-01-13T10:11:54.278Z,998.21
2019-01-13T10:12:52.870Z,998.31
2019-01-13T10:13:51.420Z,998.27
2019-01-13T10:14:50.263Z,998.22
2019-01-13T10:15:48.934Z,998.16
2019-01-13T10:16:47.507Z,998.09
2019-01-13T10:17:46.361Z,998.07
2019-01-13T10:18:44.964Z,997.97
2019-01-13T10:19:43.563Z,998
2019-01-13T10:20:42.114Z,997.94
2019-01-13T10:21:40.768Z,997.93
2019-01-13T10:22:39.308Z,997.92
2019-01-13T10:23:38.073Z,997.91
2019-01-13T10:24:36.773Z,997.88
2019-01-13T10:25:35.391Z,997.86
2019-01-13T10:26:34.105Z,997.83
2019-01-13T10:27:32.957Z,997.79
2019-01-13T10:28:31.596Z,997.76
2019-01-13T10:29:30.548Z,997.78
2019-01-13T10:30:29.105Z,997.61
2019-01-13T10:31:27.692Z,997.59
2019-01-13T10:32:26.650Z,997.64
2019-01-13T10:33:25.252Z,997.65
2019-01-13T10:34:24.087Z,997.61
2019-01-13T10:35:22.663Z,997.51
2019-01-13T10:36:21.235Z,997.56
2019-01-13T10:37:20.156Z,997.56
2019-01-13T10:38:18.870Z,997.47
2019-01-13T10:39:17.432Z,997.37
2019-01-13T10:40:16.120Z,997.44
2019-01-13T10:41:14.707Z,997.39
2019-01-13T10:42:13.464Z,997.34
2019-01-13T10:43:12.279Z,997.31
2019-01-13T10:44:10.921Z,997.31
2019-01-13T10:45:09.496Z,997.23
2019-01-13T10:46:08.246Z,997.26
2019-01-13T10:47:06.806Z,997.2
2019-01-13T10:48:05.390Z,997.2
2019-01-13T10:49:03.990Z,997.29
2019-01-13T10:50:02.717Z,997.17
2019-01-13T10:51:01.260Z,997.24
2019-01-13T10:51:59.905Z,997.02
2019-01-13T10:52:58.717Z,997.04
2019-01-13T10:53:57.176Z,997.09
2019-01-13T10:54:55.809Z,997.04
2019-01-13T10:55:55.516Z,996.96
2019-01-13T10:56:53.055Z,996.95
2019-01-13T10:57:51.623Z,996.86
2019-01-13T10:58:50.906Z,996.84
2019-01-13T10:59:49.432Z,996.78
2019-01-13T11:00:47.996Z,996.71
2019-01-13T11:01:46.563Z,996.77
2019-01-13T11:02:45.155Z,996.83
2019-01-13T11:03:43.723Z,996.83
2019-01-13T11:04:42.683Z,996.75
2019-01-13T11:07:23.068Z,996.82
2019-01-13T11:08:21.674Z,996.74
2019-01-13T11:09:20.257Z,996.76
2019-01-13T11:10:18.912Z,996.76
2019-01-13T11:11:17.458Z,996.74
2019-01-13T11:12:16.510Z,996.81
2019-01-13T11:13:15.108Z,996.79
2019-01-13T11:14:13.649Z,996.78
2019-01-13T11:15:12.256Z,996.86
2019-01-13T11:16:10.774Z,996.83
2019-01-13T11:17:09.358Z,996.79
2019-01-13T11:18:08.222Z,996.71
2019-01-13T11:19:06.899Z,996.64
2019-01-13T11:20:05.472Z,996.63
2019-01-13T11:21:04.155Z,996.64
2019-01-13T11:22:02.701Z,996.6
2019-01-13T11:23:01.238Z,996.56
2019-01-13T11:23:59.806Z,996.54
2019-01-13T11:24:58.401Z,996.55
2019-01-13T11:25:57.271Z,996.44
2019-01-13T11:26:55.813Z,996.39
2019-01-13T11:27:54.550Z,996.38
2019-01-13T11:28:53.084Z,996.34
2019-01-13T11:29:51.702Z,996.31
2019-01-13T11:30:50.321Z,996.32
2019-01-13T11:31:48.863Z,996.37
2019-01-13T11:32:47.432Z,996.36
2019-01-13T11:33:46.005Z,996.31
2019-01-13T11:34:44.619Z,996.37
2019-01-13T11:35:43.152Z,996.33
2019-01-13T11:38:18.048Z,996.38
2019-01-13T11:39:16.634Z,996.32
2019-01-13T11:40:15.164Z,996.3
2019-01-13T11:41:13.714Z,996.15
2019-01-13T11:42:12.603Z,996.03
2019-01-13T11:43:11.388Z,996.15
2019-01-13T11:44:10.071Z,996.08
2019-01-13T11:45:08.701Z,996.05
2019-01-13T11:46:07.276Z,996.02
2019-01-13T11:47:06.070Z,996.06
2019-01-13T11:48:04.632Z,996
2019-01-13T11:49:03.169Z,995.98
2019-01-13T11:50:01.704Z,996.03
2019-01-13T11:51:00.339Z,995.97
2019-01-13T11:51:58.850Z,996.12
2019-01-13T11:52:57.396Z,996.1
2019-01-13T11:53:56.169Z,996.08
2019-01-13T11:54:54.736Z,996.03
2019-01-13T11:55:53.417Z,995.99
2019-01-13T11:56:52.313Z,995.91
2019-01-13T11:57:50.982Z,995.84
2019-01-13T11:58:49.536Z,995.83
2019-01-13T11:59:48.672Z,995.93
2019-01-13T12:00:46.882Z,995.83
2019-01-13T12:01:45.443Z,995.9
2019-01-13T12:02:44.023Z,995.89
2019-01-13T12:03:42.739Z,995.91
2019-01-13T12:04:41.312Z,995.96
2019-01-13T12:05:39.932Z,995.89
2019-01-13T12:06:38.699Z,995.9
2019-01-13T12:07:37.255Z,995.95
2019-01-13T12:08:35.916Z,995.97
2019-01-13T12:09:34.497Z,996.04
2019-01-13T12:13:56.769Z,995.96
2019-01-13T12:14:55.299Z,996.05
2019-01-13T12:15:53.872Z,995.94
2019-01-13T12:16:52.442Z,995.96
2019-01-13T12:17:51.056Z,995.93
2019-01-13T12:18:49.614Z,995.89
2019-01-13T12:19:48.420Z,995.94
2019-01-13T12:20:46.970Z,995.88
2019-01-13T12:21:45.499Z,995.91
2019-01-13T12:22:44.421Z,995.87
2019-01-13T12:23:42.988Z,995.87
2019-01-13T12:24:41.555Z,995.92
2019-01-13T12:25:40.115Z,995.89
2019-01-13T12:26:38.636Z,995.95
2019-01-13T12:27:37.182Z,995.86
2019-01-13T12:28:36.130Z,995.81
2019-01-13T12:31:16.487Z,995.62
2019-01-13T12:32:15.020Z,995.66
2019-01-13T12:33:14.527Z,995.68
2019-01-13T12:34:13.039Z,995.7
2019-01-13T12:35:11.739Z,995.6
2019-01-13T12:36:10.685Z,995.68
2019-01-13T12:37:09.209Z,995.71
2019-01-13T12:38:07.899Z,995.62
2019-01-13T12:39:06.606Z,995.62
2019-01-13T12:41:29.397Z,995.57
2019-01-13T12:42:28.013Z,995.51
2019-01-13T12:43:26.863Z,995.59